Time;durP1;ratioP1;P1;durP2;ratioP2;P2;SDS_P1;SDS_P2;PMS_P1;PMS_P2;Temp;Humidity;BMP_temperature;BMP_pressure;BME280_temperature;BME280_humidity;BME280_pressure;Samples;Min_cycle;Max_cycle;Signal;HPM_P1;HPM_P2
2020/12/11 00:00:20;;;;;;;10.30;9.23;;;3.10;76.40;;;;;;5001711;28;20620;-90
2020/12/11 00:02:46;;;;;;;9.23;8.20;;;3.10;76.40;;;;;;4984649;28;20257;-91
2020/12/11 00:05:11;;;;;;;9.40;8.50;;;3.10;76.30;;;;;;4983364;28;20183;-91
2020/12/11 00:07:38;;;;;;;8.90;7.63;;;3.20;75.80;;;;;;4983224;28;20218;-90
2020/12/11 00:10:06;;;;;;;8.87;8.07;;;3.30;75.40;;;;;;4965821;28;20281;-93
2020/12/11 00:12:32;;;;;;;8.70;7.80;;;3.20;75.30;;;;;;5001439;28;20206;-92
2020/12/11 00:14:58;;;;;;;8.50;7.70;;;3.30;75.10;;;;;;4984764;28;20217;-91
2020/12/11 00:17:25;;;;;;;8.83;7.93;;;3.20;74.90;;;;;;5001904;28;20462;-91
2020/12/11 00:19:50;;;;;;;9.70;8.10;;;3.20;75.30;;;;;;4989857;28;20322;-91
2020/12/11 00:22:16;;;;;;;8.70;7.80;;;3.00;75.40;;;;;;4983698;28;20206;-91
2020/12/11 00:24:42;;;;;;;9.57;8.67;;;3.00;75.20;;;;;;4998730;28;20191;-91
2020/12/11 00:27:08;;;;;;;8.80;7.90;;;2.90;75.50;;;;;;4985228;28;20219;-91
2020/12/11 00:29:34;;;;;;;9.33;8.43;;;3.00;75.20;;;;;;4984141;28;20183;-91
2020/12/11 00:32:04;;;;;;;7.60;6.90;;;2.80;74.20;;;;;;4983692;28;20333;-92
2020/12/11 00:34:31;;;;;;;7.33;6.67;;;2.80;75.20;;;;;;4983720;28;20215;-91
2020/12/11 00:36:57;;;;;;;7.40;6.70;;;2.70;75.90;;;;;;4961081;28;641373;-90
2020/12/11 00:39:23;;;;;;;6.47;5.87;;;2.80;76.30;;;;;;4985440;28;20179;-90
2020/12/11 00:41:48;;;;;;;7.37;6.67;;;2.80;75.60;;;;;;4983912;28;20289;-92
2020/12/11 00:44:14;;;;;;;7.13;6.43;;;2.80;76.10;;;;;;4984233;28;20179;-91
2020/12/11 00:46:40;;;;;;;6.83;5.40;;;2.80;76.00;;;;;;4987060;28;20210;-91
2020/12/11 00:49:06;;;;;;;6.87;6.23;;;2.70;75.90;;;;;;4987994;28;20674;-91
2020/12/11 00:51:31;;;;;;;7.10;6.50;;;2.70;75.90;;;;;;4972666;28;20218;-91
2020/12/11 00:53:57;;;;;;;7.23;6.53;;;2.70;75.20;;;;;;4989382;28;20187;-90
2020/12/11 00:56:23;;;;;;;7.27;6.57;;;2.70;75.00;;;;;;4990372;28;20562;-90
2020/12/11 00:58:50;;;;;;;7.23;6.53;;;2.60;75.30;;;;;;4993935;28;20182;-90
2020/12/11 01:01:15;;;;;;;7.00;6.33;;;2.60;76.20;;;;;;5008552;28;20204;-91
2020/12/11 01:03:41;;;;;;;6.53;5.93;;;2.60;76.30;;;;;;5011168;28;20242;-91
2020/12/11 01:06:07;;;;;;;6.57;5.97;;;2.60;76.30;;;;;;5008935;28;20245;-91
2020/12/11 01:08:33;;;;;;;7.47;6.77;;;2.70;76.70;;;;;;5024351;28;20326;-91
2020/12/11 01:10:59;;;;;;;7.90;6.97;;;2.60;75.70;;;;;;5008459;28;20206;-91
2020/12/11 01:13:24;;;;;;;7.07;6.37;;;2.60;75.40;;;;;;5009720;28;20201;-91
2020/12/11 01:15:50;;;;;;;7.60;6.80;;;2.60;76.10;;;;;;5024525;28;20214;-90
2020/12/11 01:18:16;;;;;;;7.87;7.07;;;2.60;76.10;;;;;;5024082;28;20190;-90
2020/12/11 01:20:41;;;;;;;7.37;6.60;;;2.60;75.30;;;;;;5008140;28;20746;-91
2020/12/11 01:23:07;;;;;;;7.00;6.40;;;2.50;76.00;;;;;;4991918;28;20202;-90
2020/12/11 01:25:33;;;;;;;6.77;6.10;;;2.50;75.80;;;;;;5008990;28;20238;-89
2020/12/11 01:27:58;;;;;;;7.50;6.80;;;2.50;76.00;;;;;;5008051;28;20214;-91
2020/12/11 01:30:24;;;;;;;6.83;6.23;;;2.40;75.80;;;;;;4992869;28;20186;-90
2020/12/11 01:32:50;;;;;;;7.27;6.60;;;2.30;76.10;;;;;;5005046;28;20202;-91
2020/12/11 01:35:15;;;;;;;6.53;5.60;;;2.40;75.90;;;;;;4991114;28;20184;-91
2020/12/11 01:37:41;;;;;;;7.43;6.30;;;2.20;76.80;;;;;;4974268;28;20302;-90
2020/12/11 01:40:07;;;;;;;6.97;6.27;;;2.30;77.20;;;;;;4990363;28;20210;-92
2020/12/11 01:42:33;;;;;;;9.67;6.73;;;2.40;77.20;;;;;;5016745;28;20207;-89
2020/12/11 01:44:58;;;;;;;11.80;8.30;;;2.40;77.00;;;;;;4994229;28;20185;-92
2020/12/11 01:47:24;;;;;;;10.97;8.27;;;2.40;76.60;;;;;;4995510;28;20256;-91
2020/12/11 01:49:52;;;;;;;9.80;7.87;;;2.40;76.80;;;;;;5014059;28;20182;-91
2020/12/11 01:52:19;;;;;;;7.73;6.90;;;2.40;76.60;;;;;;5020055;28;20197;-90
2020/12/11 01:54:46;;;;;;;7.37;6.00;;;2.40;76.20;;;;;;5011025;28;20186;-92
2020/12/11 01:57:40;;;;;;;9.07;6.53;;;2.40;76.20;;;;;;5004481;28;20186;-91
2020/12/11 02:00:08;;;;;;;9.13;6.60;;;2.40;76.00;;;;;;5006552;28;20171;-91
2020/12/11 02:02:38;;;;;;;9.27;6.80;;;2.40;76.40;;;;;;5006343;28;20198;-91
2020/12/11 02:05:10;;;;;;;7.47;6.30;;;2.30;76.50;;;;;;5005035;28;20273;-91
2020/12/11 02:07:38;;;;;;;6.17;5.60;;;2.40;76.10;;;;;;4988481;28;20210;-90
2020/12/11 02:10:05;;;;;;;5.90;5.07;;;2.30;76.00;;;;;;5005975;28;20201;-91
2020/12/11 02:12:31;;;;;;;6.20;5.70;;;2.30;76.50;;;;;;5005270;28;20206;-91
2020/12/11 02:14:57;;;;;;;6.80;6.10;;;2.30;76.80;;;;;;4996433;28;20191;-91
2020/12/11 02:17:26;;;;;;;6.80;5.87;;;2.30;76.70;;;;;;4997116;28;20248;-91
2020/12/11 02:19:53;;;;;;;7.37;5.97;;;2.30;76.40;;;;;;5005015;28;20210;-90
2020/12/11 02:22:18;;;;;;;5.53;5.03;;;2.20;76.10;;;;;;5006054;28;20253;-91
2020/12/11 02:24:44;;;;;;;9.50;6.47;;;2.10;76.80;;;;;;5005072;28;20209;-91
2020/12/11 02:27:10;;;;;;;5.77;5.27;;;2.10;76.70;;;;;;5006159;28;20218;-92
2020/12/11 02:29:35;;;;;;;6.13;5.50;;;2.10;77.40;;;;;;5005722;28;20178;-90
2020/12/11 02:32:01;;;;;;;6.80;5.60;;;2.20;77.80;;;;;;4989142;28;20201;-90
2020/12/11 02:34:27;;;;;;;6.00;5.43;;;2.20;77.40;;;;;;4989187;28;20232;-89
2020/12/11 02:36:58;;;;;;;6.03;5.43;;;2.20;77.40;;;;;;5004028;28;20202;-91
2020/12/11 02:39:24;;;;;;;7.53;5.97;;;2.10;76.90;;;;;;4995281;28;20179;-91
2020/12/11 02:41:49;;;;;;;6.33;5.77;;;2.00;77.50;;;;;;4986010;28;20238;-91
2020/12/11 02:44:15;;;;;;;6.30;5.70;;;2.10;77.80;;;;;;4980221;28;20210;-91
2020/12/11 02:46:41;;;;;;;6.73;6.03;;;1.90;76.80;;;;;;5005602;28;20300;-91
2020/12/11 02:49:07;;;;;;;6.50;5.80;;;1.90;77.90;;;;;;5003622;28;20185;-90
2020/12/11 02:51:32;;;;;;;7.07;6.07;;;2.00;77.90;;;;;;5005037;28;20216;-91
2020/12/11 02:53:58;;;;;;;6.17;5.57;;;2.00;77.90;;;;;;5005714;28;20209;-91
2020/12/11 02:56:24;;;;;;;7.37;5.70;;;1.90;78.10;;;;;;5004494;28;20182;-91
2020/12/11 02:58:50;;;;;;;5.70;5.10;;;1.90;77.70;;;;;;5003621;28;20702;-91
2020/12/11 03:01:16;;;;;;;6.20;5.43;;;1.80;78.00;;;;;;5003259;28;20272;-90
2020/12/11 03:03:42;;;;;;;6.53;5.90;;;1.80;78.50;;;;;;5004635;28;20175;-92
2020/12/11 03:06:08;;;;;;;6.50;5.90;;;1.90;78.00;;;;;;5020242;28;20527;-90
2020/12/11 03:08:34;;;;;;;6.33;5.70;;;1.70;78.40;;;;;;5004018;28;20245;-90
2020/12/11 03:11:00;;;;;;;5.63;5.13;;;1.70;78.20;;;;;;5003276;28;20209;-90
2020/12/11 03:13:26;;;;;;;6.63;5.60;;;1.70;78.50;;;;;;5005357;28;20190;-91
2020/12/11 03:15:51;;;;;;;6.20;5.60;;;1.70;78.90;;;;;;5019884;28;20202;-90
2020/12/11 03:18:18;;;;;;;6.40;5.80;;;1.70;79.20;;;;;;5003285;28;20190;-92
2020/12/11 03:20:44;;;;;;;6.23;5.67;;;1.80;78.80;;;;;;5003066;28;20191;-91
2020/12/11 03:23:09;;;;;;;6.87;6.17;;;1.80;78.60;;;;;;5004936;28;20237;-91
2020/12/11 03:25:35;;;;;;;5.47;4.97;;;1.90;78.40;;;;;;4991675;28;20218;-91
2020/12/11 03:28:01;;;;;;;6.13;5.53;;;2.00;78.20;;;;;;4982975;28;20214;-92
2020/12/11 03:30:27;;;;;;;8.17;5.07;;;1.90;78.30;;;;;;4967398;28;20186;-91
2020/12/11 03:32:53;;;;;;;5.40;4.90;;;2.00;77.90;;;;;;4984270;28;20262;-92
2020/12/11 03:35:19;;;;;;;6.80;5.43;;;2.00;77.80;;;;;;4983645;28;20639;-91
2020/12/11 03:37:44;;;;;;;7.10;5.47;;;1.90;78.10;;;;;;4983489;28;20662;-91
2020/12/11 03:40:10;;;;;;;5.47;4.97;;;1.90;78.10;;;;;;4984301;28;20186;-91
2020/12/11 03:42:36;;;;;;;6.77;5.33;;;1.90;78.10;;;;;;4985178;28;20199;-91
2020/12/11 03:45:02;;;;;;;6.37;5.77;;;1.80;78.30;;;;;;5002687;28;20186;-91
2020/12/11 03:47:32;;;;;;;6.20;5.40;;;1.70;77.70;;;;;;5005168;28;20350;-92
2020/12/11 03:49:59;;;;;;;5.87;5.37;;;1.70;78.40;;;;;;5019610;28;20187;-91
2020/12/11 03:52:28;;;;;;;5.90;5.30;;;1.60;77.90;;;;;;4986384;28;20600;-91
2020/12/11 03:54:55;;;;;;;6.83;5.63;;;1.50;79.40;;;;;;5002871;28;20213;-92
2020/12/11 03:57:20;;;;;;;5.83;5.23;;;1.50;80.00;;;;;;4986699;28;20190;-91
2020/12/11 03:59:46;;;;;;;5.37;4.83;;;1.60;79.70;;;;;;5020354;28;20482;-91
2020/12/11 04:02:13;;;;;;;6.03;5.43;;;1.70;79.40;;;;;;5019326;28;20234;-92
2020/12/11 04:04:39;;;;;;;6.30;5.70;;;1.60;79.10;;;;;;4988758;28;20254;-91
2020/12/11 04:07:05;;;;;;;6.87;5.63;;;1.60;79.40;;;;;;4983025;28;20209;-91
2020/12/11 04:09:31;;;;;;;5.60;5.03;;;1.60;79.10;;;;;;4985010;28;20183;-90
2020/12/11 04:11:56;;;;;;;6.10;5.50;;;1.70;79.20;;;;;;4967643;28;20788;-92
2020/12/11 04:14:22;;;;;;;6.03;5.20;;;1.70;78.60;;;;;;4983783;28;20187;-92
2020/12/11 04:16:49;;;;;;;5.77;5.20;;;1.70;79.00;;;;;;4985354;28;20210;-90
2020/12/11 04:19:15;;;;;;;5.33;4.83;;;1.70;79.20;;;;;;4983419;28;20653;-92
2020/12/11 04:21:49;;;;;;;6.00;5.40;;;1.70;78.90;;;;;;4985342;28;20207;-92
2020/12/11 04:24:16;;;;;;;5.80;5.20;;;1.80;79.00;;;;;;5005989;28;20184;-89
2020/12/11 04:26:42;;;;;;;5.30;4.80;;;1.80;78.80;;;;;;5016723;28;20229;-90
2020/12/11 04:29:08;;;;;;;6.07;5.40;;;1.70;79.30;;;;;;5004659;28;20178;-91
2020/12/11 04:31:34;;;;;;;6.27;5.67;;;1.70;78.80;;;;;;5006755;28;20206;-89
2020/12/11 04:33:59;;;;;;;6.00;5.40;;;1.70;79.00;;;;;;5007247;28;20220;-88
2020/12/11 04:36:25;;;;;;;5.50;5.10;;;1.60;79.20;;;;;;5013122;28;20190;-91
2020/12/11 04:38:51;;;;;;;5.30;4.80;;;1.70;79.80;;;;;;4971969;28;20188;-88
2020/12/11 04:41:19;;;;;;;6.27;5.47;;;1.70;78.70;;;;;;4994830;28;20203;-91
2020/12/11 04:43:49;;;;;;;6.17;5.57;;;1.70;78.70;;;;;;4991978;28;20186;-90
2020/12/11 04:46:15;;;;;;;6.00;5.40;;;1.70;78.60;;;;;;5004911;28;20186;-90
2020/12/11 04:48:42;;;;;;;5.77;5.20;;;1.70;78.60;;;;;;5003780;28;20241;-91
2020/12/11 04:51:08;;;;;;;6.23;5.60;;;1.70;78.70;;;;;;5004669;28;20202;-92
2020/12/11 04:53:36;;;;;;;6.30;5.23;;;1.70;78.80;;;;;;5003954;28;20193;-90
2020/12/11 04:56:06;;;;;;;6.13;5.53;;;1.70;79.00;;;;;;4996863;28;20191;-92
2020/12/11 04:58:33;;;;;;;7.03;6.13;;;1.70;78.80;;;;;;4985485;28;20213;-91
2020/12/11 05:01:05;;;;;;;6.27;5.50;;;1.60;78.30;;;;;;4984496;28;20686;-92
2020/12/11 05:03:32;;;;;;;7.27;6.40;;;1.60;78.70;;;;;;4984460;28;20202;-90
2020/12/11 05:05:58;;;;;;;7.77;6.90;;;1.60;78.90;;;;;;4986765;28;20247;-91
2020/12/11 05:08:24;;;;;;;6.80;6.10;;;1.60;78.90;;;;;;5016770;28;20210;-91
2020/12/11 05:10:50;;;;;;;6.53;5.93;;;1.50;77.30;;;;;;5010365;28;20197;-92
2020/12/11 05:13:21;;;;;;;7.17;6.47;;;1.40;79.10;;;;;;5024694;28;20189;-91
2020/12/11 05:16:10;;;;;;;6.67;5.97;;;1.30;78.70;;;;;;5023770;28;20181;-91
2020/12/11 05:18:37;;;;;;;6.30;5.70;;;1.40;79.50;;;;;;5023546;28;20190;-91
2020/12/11 05:21:20;;;;;;;7.90;7.10;;;1.30;79.30;;;;;;5016562;28;20600;-91
2020/12/11 05:24:05;;;;;;;10.17;7.63;;;1.20;80.80;;;;;;5005173;28;20274;-90
2020/12/11 05:26:36;;;;;;;8.07;7.27;;;1.30;80.10;;;;;;5019863;28;20193;-91
2020/12/11 05:29:03;;;;;;;6.53;5.87;;;1.30;80.40;;;;;;5003152;28;20186;-92
2020/12/11 05:31:30;;;;;;;6.27;5.67;;;1.20;78.80;;;;;;4991771;28;20221;-90
2020/12/11 05:34:13;;;;;;;6.20;5.60;;;1.10;79.10;;;;;;4987025;28;20237;-89
2020/12/11 05:36:46;;;;;;;11.63;9.53;;;1.20;80.20;;;;;;4988202;28;20666;-90
2020/12/11 05:39:15;;;;;;;15.83;12.87;;;1.20;80.40;;;;;;5003620;28;20187;-90
2020/12/11 05:41:41;;;;;;;7.10;6.17;;;1.30;80.00;;;;;;5002548;28;20257;-90
2020/12/11 05:44:23;;;;;;;6.90;6.20;;;1.20;79.60;;;;;;5026984;28;20178;-90
2020/12/11 05:46:49;;;;;;;9.07;7.97;;;1.20;79.90;;;;;;5009823;28;20218;-90
2020/12/11 05:49:25;;;;;;;8.40;7.60;;;1.20;80.50;;;;;;5004218;28;20276;-90
2020/12/11 05:52:10;;;;;;;7.40;6.70;;;1.20;79.40;;;;;;5004133;28;20216;-89
2020/12/11 05:54:56;;;;;;;6.63;5.97;;;1.10;80.30;;;;;;5003903;28;20221;-90
2020/12/11 05:57:23;;;;;;;6.57;5.67;;;1.00;79.40;;;;;;5016887;28;20209;-90
2020/12/11 05:59:48;;;;;;;6.67;6.07;;;0.90;80.00;;;;;;5005328;28;20182;-89
2020/12/11 06:02:18;;;;;;;7.23;5.93;;;0.80;80.70;;;;;;5005692;28;20600;-88
2020/12/11 06:04:45;;;;;;;7.57;6.20;;;0.80;81.40;;;;;;5004389;28;20186;-90
2020/12/11 06:07:12;;;;;;;6.43;5.83;;;0.90;82.30;;;;;;4998647;28;20198;-89
2020/12/11 06:09:40;;;;;;;17.07;13.77;;;0.90;81.70;;;;;;4986569;28;20167;-88
2020/12/11 06:12:08;;;;;;;7.20;6.50;;;0.90;82.40;;;;;;4993917;28;20198;-89
2020/12/11 06:15:02;;;;;;;29.27;26.37;;;1.00;82.60;;;;;;5005660;28;20641;-89
2020/12/11 06:17:33;;;;;;;7.57;6.77;;;1.10;81.70;;;;;;5000619;28;20179;-91
2020/12/11 06:20:01;;;;;;;9.10;8.20;;;1.00;81.80;;;;;;5006917;28;20190;-88
2020/12/11 06:22:27;;;;;;;9.03;8.13;;;1.10;82.10;;;;;;5006246;28;20270;-89
2020/12/11 06:24:53;;;;;;;7.97;6.77;;;1.30;81.80;;;;;;5006085;28;20650;-90
2020/12/11 06:27:45;;;;;;;6.50;5.90;;;1.30;81.10;;;;;;5005524;28;20238;-88
2020/12/11 06:30:25;;;;;;;7.63;5.67;;;1.30;80.60;;;;;;5001228;28;20229;-90
2020/12/11 06:32:51;;;;;;;9.87;6.30;;;1.20;80.60;;;;;;5020263;28;20198;-89
2020/12/11 06:35:18;;;;;;;5.83;5.30;;;1.10;81.80;;;;;;5016660;28;20777;-88
2020/12/11 06:37:43;;;;;;;7.60;5.27;;;1.00;81.90;;;;;;4996852;28;20233;-89
2020/12/11 06:40:09;;;;;;;6.23;5.63;;;1.00;82.30;;;;;;5022391;28;20190;-88
2020/12/11 06:42:35;;;;;;;6.17;5.57;;;1.10;82.10;;;;;;4990170;28;20261;-86
2020/12/11 06:45:25;;;;;;;6.07;5.47;;;1.00;83.00;;;;;;5008991;28;20237;-88
2020/12/11 06:47:56;;;;;;;6.67;6.10;;;1.00;83.20;;;;;;5006774;28;20203;-87
2020/12/11 06:50:27;;;;;;;6.50;5.80;;;1.00;83.60;;;;;;5005577;28;20186;-88
2020/12/11 06:52:53;;;;;;;11.53;7.50;;;1.00;83.40;;;;;;5005765;28;20237;-86
2020/12/11 06:55:19;;;;;;;6.20;5.43;;;1.10;83.70;;;;;;5006559;28;20198;-87
2020/12/11 06:57:45;;;;;;;6.37;5.50;;;1.20;83.10;;;;;;5004864;28;20187;-88
2020/12/11 07:00:32;;;;;;;8.53;5.83;;;1.30;83.20;;;;;;5005471;28;20228;-86
2020/12/11 07:03:28;;;;;;;7.97;6.13;;;1.40;82.70;;;;;;5006713;28;20192;-86
2020/12/11 07:06:02;;;;;;;6.03;5.43;;;1.50;82.10;;;;;;5005650;28;20263;-86
2020/12/11 07:08:28;;;;;;;6.10;5.50;;;1.40;82.00;;;;;;5014007;28;20210;-91
2020/12/11 07:10:53;;;;;;;5.93;5.33;;;1.30;82.30;;;;;;5018560;28;20233;-89
2020/12/11 07:13:19;;;;;;;6.60;6.00;;;1.20;83.30;;;;;;5006544;28;20186;-87
2020/12/11 07:15:55;;;;;;;8.13;7.33;;;1.20;83.70;;;;;;5006256;28;20182;-87
2020/12/11 07:18:21;;;;;;;14.93;13.53;;;1.20;83.80;;;;;;5018297;28;20193;-91
2020/12/11 07:20:53;;;;;;;7.93;7.20;;;1.30;83.80;;;;;;5034425;28;20230;-86
2020/12/11 07:23:19;;;;;;;8.90;8.00;;;1.30;84.20;;;;;;5002549;28;20198;-86
2020/12/11 07:25:47;;;;;;;7.90;7.10;;;1.30;84.50;;;;;;5005058;28;20182;-88
2020/12/11 07:28:13;;;;;;;6.47;5.77;;;1.30;84.60;;;;;;5005149;28;20212;-87
2020/12/11 07:30:41;;;;;;;6.97;6.03;;;1.30;85.00;;;;;;5004230;28;20185;-86
2020/12/11 07:33:10;;;;;;;7.73;6.13;;;1.20;84.90;;;;;;4988231;28;20206;-85
2020/12/11 07:35:43;;;;;;;7.83;6.67;;;1.10;86.30;;;;;;5005074;28;20214;-87
2020/12/11 07:38:08;;;;;;;6.90;5.83;;;1.10;86.70;;;;;;5004517;28;20186;-86
2020/12/11 07:40:34;;;;;;;5.93;5.33;;;1.00;87.50;;;;;;4996670;28;20316;-87
2020/12/11 07:43:02;;;;;;;8.07;6.10;;;1.20;87.10;;;;;;4983990;28;20195;-87
2020/12/11 07:45:31;;;;;;;9.13;7.27;;;1.40;86.30;;;;;;4984113;28;20194;-87
2020/12/11 07:47:58;;;;;;;7.40;6.53;;;1.40;86.10;;;;;;4983894;28;20209;-87
2020/12/11 07:50:27;;;;;;;7.27;6.57;;;1.50;86.00;;;;;;4984217;28;20222;-87
2020/12/11 07:52:58;;;;;;;7.70;6.90;;;1.60;85.30;;;;;;4983708;28;20238;-87
2020/12/11 07:55:27;;;;;;;7.77;7.03;;;1.70;84.60;;;;;;4984898;28;20187;-87
2020/12/11 07:57:55;;;;;;;8.57;7.77;;;1.80;84.10;;;;;;4985482;28;20255;-87
2020/12/11 08:00:21;;;;;;;7.93;7.13;;;1.90;83.10;;;;;;5000410;28;20257;-86
2020/12/11 08:03:04;;;;;;;8.43;7.43;;;1.90;82.60;;;;;;4983673;28;20690;-86
2020/12/11 08:05:31;;;;;;;9.40;8.10;;;2.00;82.60;;;;;;4983805;28;20219;-87
2020/12/11 08:07:56;;;;;;;8.93;7.47;;;2.00;81.90;;;;;;4992491;28;20254;-86
2020/12/11 08:10:24;;;;;;;8.87;7.20;;;2.10;81.60;;;;;;5004137;28;20190;-86
2020/12/11 08:12:51;;;;;;;8.03;7.03;;;2.10;81.40;;;;;;5003487;28;20202;-86
2020/12/11 08:15:30;;;;;;;7.70;6.90;;;2.10;81.40;;;;;;5004387;28;20176;-87
2020/12/11 08:18:24;;;;;;;8.50;7.17;;;2.20;81.90;;;;;;5003925;28;20178;-88
2020/12/11 08:20:52;;;;;;;8.97;7.07;;;2.10;82.20;;;;;;5003937;28;20209;-86
2020/12/11 08:23:44;;;;;;;9.27;7.80;;;2.20;81.60;;;;;;5002301;28;20316;-86
2020/12/11 08:26:16;;;;;;;8.87;7.97;;;2.30;81.40;;;;;;5002275;28;20175;-87
2020/12/11 08:28:43;;;;;;;8.27;7.30;;;2.10;82.50;;;;;;5001965;28;20213;-86
2020/12/11 08:31:39;;;;;;;8.83;7.93;;;2.20;82.20;;;;;;5003738;28;20209;-87
2020/12/11 08:34:09;;;;;;;10.27;7.20;;;2.00;83.10;;;;;;4984490;28;20697;-85
2020/12/11 08:36:37;;;;;;;9.00;7.87;;;1.80;84.70;;;;;;5004121;28;20198;-86
2020/12/11 08:39:23;;;;;;;10.23;8.43;;;1.80;84.40;;;;;;5003841;28;20357;-86
2020/12/11 08:42:27;;;;;;;10.27;9.03;;;1.80;84.20;;;;;;5021303;28;20206;-89
2020/12/11 08:45:04;;;;;;;8.93;7.00;;;1.50;85.70;;;;;;4999446;28;20194;-87
2020/12/11 08:52:55;;;;;;;9.00;7.50;;;1.90;83.90;;;;;;5005039;28;20205;-88
2020/12/11 08:55:21;;;;;;;10.50;7.40;;;2.10;83.20;;;;;;5003073;28;20653;-87
2020/12/11 08:57:49;;;;;;;8.13;7.03;;;2.00;84.00;;;;;;5005504;28;20201;-89
2020/12/11 09:00:17;;;;;;;9.37;7.20;;;2.00;83.90;;;;;;5010474;28;20178;-89
2020/12/11 09:02:42;;;;;;;8.00;7.20;;;2.10;82.70;;;;;;5003632;28;20198;-87
2020/12/11 09:05:08;;;;;;;12.47;7.13;;;2.20;82.30;;;;;;5002129;28;20193;-88
2020/12/11 09:07:34;;;;;;;8.40;7.50;;;2.10;82.90;;;;;;5023313;28;20495;-88
2020/12/11 09:10:00;;;;;;;8.67;7.63;;;2.30;82.20;;;;;;5005503;28;20249;-88
2020/12/11 09:12:25;;;;;;;8.70;7.80;;;2.30;81.80;;;;;;5022081;28;20313;-88
2020/12/11 09:14:51;;;;;;;13.77;8.87;;;2.40;81.40;;;;;;5022846;28;20332;-82
2020/12/11 09:17:17;;;;;;;9.87;8.13;;;2.30;81.20;;;;;;5008457;28;20563;-87
2020/12/11 09:19:42;;;;;;;8.07;7.27;;;2.40;81.30;;;;;;4973742;28;20183;-87
2020/12/11 09:22:08;;;;;;;13.70;8.77;;;2.30;81.10;;;;;;4973569;28;20213;-88
2020/12/11 09:24:34;;;;;;;11.27;8.73;;;2.30;81.40;;;;;;5006342;28;20187;-86
2020/12/11 09:27:00;;;;;;;10.17;8.20;;;2.20;82.50;;;;;;4990871;28;20690;-87
2020/12/11 09:29:38;;;;;;;9.33;8.40;;;2.30;81.80;;;;;;5003921;28;20186;-86
2020/12/11 09:32:05;;;;;;;10.03;9.00;;;2.40;81.90;;;;;;4990813;28;20268;-86
2020/12/11 09:34:34;;;;;;;11.80;10.57;;;2.50;80.70;;;;;;5005706;28;20253;-88
2020/12/11 09:37:03;;;;;;;8.83;7.93;;;2.70;80.00;;;;;;5006361;28;20191;-86
2020/12/11 09:39:29;;;;;;;9.17;8.20;;;2.80;79.20;;;;;;5006664;28;20193;-88
2020/12/11 09:42:08;;;;;;;9.33;8.20;;;2.70;79.20;;;;;;5005708;28;20205;-88
2020/12/11 09:45:21;;;;;;;9.13;8.10;;;2.80;78.80;;;;;;4990622;28;20266;-87
2020/12/11 09:47:40;;;;;;;9.17;8.20;;;2.90;78.50;;;;;;4998581;28;20214;-90
2020/12/11 09:55:04;;;;;;;12.40;8.97;;;2.80;80.20;;;;;;5007431;28;20190;-86
2020/12/11 09:57:30;;;;;;;12.53;9.57;;;2.80;79.70;;;;;;5015637;28;20250;-91
2020/12/11 09:59:58;;;;;;;15.90;11.47;;;2.70;80.00;;;;;;5019955;28;20181;-90
2020/12/11 10:04:52;;;;;;;12.57;10.60;;;2.50;81.70;;;;;;5005249;28;20246;-86
2020/12/11 10:07:18;;;;;;;12.97;11.10;;;2.50;82.00;;;;;;5004622;28;20237;-86
2020/12/11 10:09:44;;;;;;;13.67;11.00;;;2.40;82.40;;;;;;4972343;28;20186;-87
2020/12/11 10:12:10;;;;;;;10.63;8.87;;;2.50;82.10;;;;;;4986125;28;20198;-87
2020/12/11 10:14:42;;;;;;;11.30;9.10;;;2.60;81.80;;;;;;4988125;28;20238;-86
2020/12/11 10:17:09;;;;;;;11.27;9.37;;;2.70;81.30;;;;;;4986298;28;20168;-88
2020/12/11 10:19:35;;;;;;;17.40;15.67;;;2.60;81.70;;;;;;4968423;28;20218;-87
2020/12/11 10:22:01;;;;;;;14.37;12.03;;;2.50;81.90;;;;;;4991631;28;20210;-87
2020/12/11 10:24:27;;;;;;;19.93;18.13;;;2.50;82.40;;;;;;4974881;28;20580;-86
2020/12/11 10:26:52;;;;;;;12.80;11.27;;;2.50;82.80;;;;;;4953537;28;20269;-87
2020/12/11 10:29:18;;;;;;;18.73;15.47;;;2.70;82.10;;;;;;4995372;28;20626;-86
2020/12/11 10:31:44;;;;;;;18.70;16.70;;;2.60;82.10;;;;;;5004834;28;20256;-86
2020/12/11 10:34:15;;;;;;;12.37;10.90;;;2.70;82.20;;;;;;5004227;28;20189;-86
2020/12/11 10:36:42;;;;;;;12.87;9.83;;;2.80;80.90;;;;;;5005207;28;20202;-86
2020/12/11 10:39:09;;;;;;;12.27;9.70;;;2.80;81.00;;;;;;5004445;28;20187;-86
2020/12/11 10:41:36;;;;;;;12.13;9.80;;;2.80;82.50;;;;;;4985637;28;20209;-86
2020/12/11 10:44:02;;;;;;;12.70;10.17;;;2.80;83.20;;;;;;4985217;28;20590;-86
2020/12/11 10:46:28;;;;;;;12.50;11.23;;;2.80;83.50;;;;;;4998672;28;20675;-86
2020/12/11 10:48:53;;;;;;;10.63;9.43;;;2.80;83.20;;;;;;4983060;28;20274;-86
2020/12/11 10:51:19;;;;;;;11.57;9.43;;;2.90;81.80;;;;;;4981699;28;20253;-86
2020/12/11 10:53:46;;;;;;;12.30;10.07;;;2.90;81.20;;;;;;4992006;28;20186;-87
2020/12/11 10:56:12;;;;;;;11.37;10.23;;;3.00;81.50;;;;;;5003468;28;20207;-86
2020/12/11 10:58:39;;;;;;;15.40;14.17;;;3.20;80.10;;;;;;4993127;28;20270;-87
2020/12/11 11:01:06;;;;;;;32.77;29.30;;;3.20;78.90;;;;;;4984219;28;20273;-87
2020/12/11 11:03:33;;;;;;;15.00;12.70;;;3.30;78.70;;;;;;4983922;28;20199;-87
2020/12/11 11:06:04;;;;;;;11.60;9.97;;;3.60;77.70;;;;;;4987590;28;20218;-87
2020/12/11 11:11:11;;;;;;;10.70;9.60;;;4.20;75.90;;;;;;5002143;28;20471;-87
2020/12/11 11:19:30;;;;;;;12.83;10.33;;;5.10;71.70;;;;;;4974753;28;20307;-86
2020/12/11 11:22:23;;;;;;;81.77;48.20;;;5.40;70.10;;;;;;4995037;28;20198;-86
2020/12/11 11:29:55;;;;;;;10.40;9.30;;;6.00;67.20;;;;;;5005275;28;20638;-86
2020/12/11 11:32:21;;;;;;;10.83;8.57;;;6.00;67.20;;;;;;5004143;28;20215;-86
2020/12/11 11:34:46;;;;;;;11.67;8.40;;;5.90;66.90;;;;;;4996654;28;20187;-87
2020/12/11 11:37:13;;;;;;;11.27;8.77;;;5.70;67.60;;;;;;5017871;28;20209;-89
2020/12/11 11:39:39;;;;;;;9.97;8.67;;;5.70;68.50;;;;;;5007562;28;20195;-89
2020/12/11 11:42:04;;;;;;;10.40;9.30;;;5.60;69.50;;;;;;4999041;28;20218;-89
2020/12/11 11:46:56;;;;;;;12.40;10.10;;;5.40;70.90;;;;;;5003868;28;20218;-88
2020/12/11 11:49:36;;;;;;;11.80;10.00;;;5.20;72.10;;;;;;5004875;28;20186;-89
2020/12/11 11:54:36;;;;;;;12.87;11.57;;;5.20;70.90;;;;;;4986448;28;20277;-88
2020/12/11 11:57:02;;;;;;;14.43;11.77;;;4.90;71.60;;;;;;4985465;28;20183;-88
2020/12/11 11:59:27;;;;;;;13.03;11.73;;;4.90;72.40;;;;;;4987360;28;20202;-89
2020/12/11 12:01:54;;;;;;;16.63;11.87;;;4.80;73.00;;;;;;5020098;28;20217;-88
2020/12/11 12:04:21;;;;;;;46.53;38.00;;;4.80;72.80;;;;;;5000015;28;20335;-88
2020/12/11 12:06:47;;;;;;;13.23;11.83;;;4.70;73.30;;;;;;5004191;28;20190;-88
2020/12/11 12:09:12;;;;;;;12.47;10.73;;;4.70;74.50;;;;;;4986454;28;20626;-88
2020/12/11 12:11:38;;;;;;;13.00;11.57;;;4.50;74.50;;;;;;5002650;28;20206;-88
2020/12/11 12:14:03;;;;;;;14.07;12.67;;;4.60;74.00;;;;;;5003707;28;20226;-89
2020/12/11 12:16:30;;;;;;;14.37;12.87;;;4.60;74.70;;;;;;4997390;28;20187;-88
2020/12/11 12:18:58;;;;;;;12.83;11.60;;;4.60;74.70;;;;;;5010170;28;20257;-88
2020/12/11 12:29:32;;;;;;;13.87;12.57;;;4.40;76.90;;;;;;5039242;28;20200;-88
2020/12/11 12:32:04;;;;;;;13.30;11.90;;;4.40;77.00;;;;;;5013261;28;20668;-89
2020/12/11 12:35:22;;;;;;;13.60;12.13;;;4.30;77.00;;;;;;5005205;28;20240;-88
2020/12/11 12:42:46;;;;;;;13.93;12.60;;;4.10;78.10;;;;;;5012839;28;20205;-89
2020/12/11 12:45:12;;;;;;;15.43;11.97;;;4.20;77.80;;;;;;5013204;28;20194;-88
2020/12/11 12:47:39;;;;;;;13.00;11.67;;;4.30;77.60;;;;;;5007239;28;20214;-90
2020/12/11 12:50:07;;;;;;;13.60;12.13;;;4.30;77.70;;;;;;5007144;28;20186;-91
2020/12/11 12:52:33;;;;;;;14.33;12.93;;;4.30;77.20;;;;;;5008281;28;20296;-89
2020/12/11 12:54:59;;;;;;;13.07;11.80;;;4.20;76.90;;;;;;5002868;28;20257;-89
2020/12/11 12:59:59;;;;;;;13.90;11.60;;;4.20;77.10;;;;;;5006447;28;20204;-90
2020/12/11 13:05:08;;;;;;;12.70;11.40;;;4.20;77.70;;;;;;5007604;28;20707;-88
2020/12/11 13:07:34;;;;;;;15.37;11.57;;;4.00;79.20;;;;;;5025342;28;20267;-87
2020/12/11 13:10:00;;;;;;;15.30;13.73;;;3.90;79.30;;;;;;5006109;28;20278;-88
2020/12/11 13:12:26;;;;;;;11.90;10.57;;;4.00;78.10;;;;;;5005941;28;20199;-88
2020/12/11 13:14:51;;;;;;;10.47;9.37;;;4.00;78.00;;;;;;5023846;28;20205;-88
2020/12/11 13:17:17;;;;;;;10.60;9.47;;;3.80;77.60;;;;;;5029786;28;20216;-88
2020/12/11 13:19:43;;;;;;;10.20;9.20;;;3.60;78.60;;;;;;5017658;28;20195;-88
2020/12/11 13:27:28;;;;;;;10.67;9.67;;;3.70;78.90;;;;;;5002382;28;20267;-88
2020/12/11 13:29:55;;;;;;;11.97;10.27;;;3.80;80.30;;;;;;5010754;28;20196;-88
2020/12/11 13:32:21;;;;;;;10.40;9.33;;;3.80;78.80;;;;;;5012584;28;20234;-88
2020/12/11 13:34:48;;;;;;;11.43;10.23;;;3.80;79.30;;;;;;5011989;28;20182;-88
2020/12/11 13:37:13;;;;;;;10.77;9.67;;;3.80;80.40;;;;;;4994894;28;20221;-88
2020/12/11 13:39:39;;;;;;;12.90;11.10;;;3.60;80.90;;;;;;5026534;28;20194;-88
2020/12/11 13:42:05;;;;;;;12.63;9.93;;;3.50;82.60;;;;;;5017899;28;20269;-88
2020/12/11 13:44:31;;;;;;;11.03;9.93;;;3.60;82.10;;;;;;5011659;28;20185;-87
2020/12/11 13:46:57;;;;;;;11.37;10.17;;;3.80;81.00;;;;;;5017337;28;20188;-86
2020/12/11 13:49:23;;;;;;;11.30;10.13;;;3.80;81.40;;;;;;5012816;28;20252;-88
2020/12/11 13:51:50;;;;;;;11.57;10.37;;;3.60;81.40;;;;;;5013259;28;20205;-87
2020/12/11 13:54:16;;;;;;;22.17;18.93;;;3.60;82.60;;;;;;5019746;28;20640;-89